createdAt,value
2023-04-09T00:14:58.129Z,21.6
2023-04-09T00:16:00.145Z,21.6
2023-04-09T00:17:02.370Z,21.6
2023-04-09T00:18:04.147Z,21.6
2023-04-09T00:19:05.992Z,21.6
2023-04-09T00:20:07.696Z,21.5
2023-04-09T00:21:09.673Z,21.6
2023-04-09T00:22:11.580Z,21.6
2023-04-09T00:23:13.493Z,21.6
2023-04-09T00:24:15.586Z,21.6
2023-04-09T00:25:17.547Z,21.6
2023-04-09T00:26:19.741Z,21.6
2023-04-09T00:27:21.811Z,21.6
2023-04-09T00:28:23.800Z,21.6
2023-04-09T00:29:25.914Z,21.7
2023-04-09T00:30:27.781Z,21.7
2023-04-09T00:31:30.035Z,21.7
2023-04-09T00:32:32.354Z,21.7
2023-04-09T00:33:34.531Z,21.7
2023-04-09T00:34:36.415Z,21.7
2023-04-09T00:35:38.618Z,21.7
2023-04-09T00:36:40.761Z,21.7
2023-04-09T00:37:42.282Z,21.7
2023-04-09T00:38:44.373Z,21.7
2023-04-09T00:39:46.267Z,21.7
2023-04-09T00:40:48.232Z,21.6
2023-04-09T00:41:50.360Z,21.6
2023-04-09T00:42:52.276Z,21.6
2023-04-09T00:43:54.380Z,21.6
2023-04-09T00:44:56.492Z,21.6
2023-04-09T00:45:58.677Z,21.6
2023-04-09T00:47:00.655Z,21.6
2023-04-09T02:40:10.491Z,21.9
2023-04-09T02:41:12.457Z,21.9
2023-04-09T02:42:14.347Z,21.8
2023-04-09T02:43:16.322Z,21.8
2023-04-09T08:44:39.141Z,21.3
2023-04-09T08:45:41.037Z,21.3
2023-04-09T08:46:43.065Z,21.3
2023-04-09T08:47:45.363Z,21.3
2023-04-09T08:48:47.092Z,21.3
2023-04-09T08:49:49.107Z,21.3
2023-04-09T08:50:51.003Z,21.3
2023-04-09T08:51:53.013Z,21.3
2023-04-09T08:52:54.790Z,21.3
2023-04-09T08:53:56.596Z,21.3
2023-04-09T08:54:58.707Z,21.3
2023-04-09T08:56:00.716Z,21.3
2023-04-09T08:57:02.526Z,21.3
2023-04-09T08:58:04.515Z,21.3
2023-04-09T08:59:06.632Z,21.3
2023-04-09T09:00:08.645Z,21.3
2023-04-09T09:01:13.691Z,21.3
2023-04-09T09:02:15.927Z,21.3
2023-04-09T09:03:18.166Z,21.3
2023-04-09T09:04:20.122Z,21.3
2023-04-09T09:05:22.151Z,21.3
2023-04-09T09:06:23.979Z,21.3
2023-04-09T09:07:26.037Z,21.3
2023-04-09T09:08:28.023Z,21.3
2023-04-09T09:09:29.935Z,21.3
2023-04-09T09:10:31.969Z,21.3
2023-04-09T09:11:33.776Z,21.3
2023-04-09T09:12:35.666Z,21.2
2023-04-09T09:13:37.679Z,21.3
2023-04-09T09:14:39.697Z,21.3
2023-04-09T09:15:41.821Z,21.2
2023-04-09T09:16:44.396Z,21.3
2023-04-09T09:17:46.648Z,21.2
2023-04-09T20:24:02.720Z,21.4
2023-04-09T20:25:04.910Z,21.4
2023-04-09T20:26:06.813Z,21.4
2023-04-09T20:29:13.420Z,21.3
2023-04-09T22:41:20.181Z,21.4
2023-04-09T22:42:21.847Z,21.4
2023-04-09T22:43:23.974Z,21.4
2023-04-09T22:44:26.088Z,21.4
2023-04-09T22:45:28.171Z,21.4
2023-04-09T22:46:30.191Z,21.4
2023-04-09T22:47:32.345Z,21.4
